sensor_id;sensor_type;location;lat;lon;timestamp;P1;durP1;ratioP1;P2;durP2;ratioP2
51614;SDS011;37695;52.960;6.188;2022-09-30T00:01:39;5.63;;;2.30;;
51614;SDS011;37695;52.960;6.188;2022-09-30T00:04:06;4.50;;;1.92;;
51614;SDS011;37695;52.960;6.188;2022-09-30T00:06:39;3.10;;;1.45;;
51614;SDS011;37695;52.960;6.188;2022-09-30T00:09:05;1.63;;;1.27;;
51614;SDS011;37695;52.960;6.188;2022-09-30T00:11:32;1.40;;;1.30;;
51614;SDS011;37695;52.960;6.188;2022-09-30T00:14:00;1.73;;;1.50;;
51614;SDS011;37695;52.960;6.188;2022-09-30T00:16:27;1.30;;;1.15;;
51614;SDS011;37695;52.960;6.188;2022-09-30T00:18:56;1.55;;;1.10;;
51614;SDS011;37695;52.960;6.188;2022-09-30T00:21:23;1.70;;;1.40;;
51614;SDS011;37695;52.960;6.188;2022-09-30T00:23:49;1.38;;;1.27;;
51614;SDS011;37695;52.960;6.188;2022-09-30T00:26:17;2.40;;;1.80;;
51614;SDS011;37695;52.960;6.188;2022-09-30T00:28:44;2.15;;;1.50;;
51614;SDS011;37695;52.960;6.188;2022-09-30T00:31:13;2.88;;;1.90;;
51614;SDS011;37695;52.960;6.188;2022-09-30T00:33:40;3.08;;;2.22;;
51614;SDS011;37695;52.960;6.188;2022-09-30T00:36:07;3.78;;;2.35;;
51614;SDS011;37695;52.960;6.188;2022-09-30T00:38:33;3.78;;;2.35;;
51614;SDS011;37695;52.960;6.188;2022-09-30T00:40:59;1.90;;;1.60;;
51614;SDS011;37695;52.960;6.188;2022-09-30T00:46:34;4.10;;;1.85;;
51614;SDS011;37695;52.960;6.188;2022-09-30T00:49:04;3.40;;;1.40;;
51614;SDS011;37695;52.960;6.188;2022-09-30T00:51:44;1.20;;;1.10;;
51614;SDS011;37695;52.960;6.188;2022-09-30T00:54:22;2.20;;;1.67;;
51614;SDS011;37695;52.960;6.188;2022-09-30T00:56:53;2.00;;;1.55;;
51614;SDS011;37695;52.960;6.188;2022-09-30T00:59:22;1.73;;;1.33;;
51614;SDS011;37695;52.960;6.188;2022-09-30T01:01:51;1.40;;;1.30;;
51614;SDS011;37695;52.960;6.188;2022-09-30T01:04:18;1.40;;;1.30;;
51614;SDS011;37695;52.960;6.188;2022-09-30T01:06:46;1.90;;;1.38;;
51614;SDS011;37695;52.960;6.188;2022-09-30T01:09:12;1.40;;;1.30;;
51614;SDS011;37695;52.960;6.188;2022-09-30T01:11:38;1.90;;;1.10;;
51614;SDS011;37695;52.960;6.188;2022-09-30T01:14:05;16.42;;;1.75;;
51614;SDS011;37695;52.960;6.188;2022-09-30T01:31:07;1.55;;;1.45;;
51614;SDS011;37695;52.960;6.188;2022-09-30T01:37:26;1.00;;;0.90;;
51614;SDS011;37695;52.960;6.188;2022-09-30T01:40:09;7.22;;;1.02;;
51614;SDS011;37695;52.960;6.188;2022-09-30T01:42:39;1.17;;;1.02;;
51614;SDS011;37695;52.960;6.188;2022-09-30T01:45:14;2.17;;;1.52;;
51614;SDS011;37695;52.960;6.188;2022-09-30T01:47:47;1.80;;;1.58;;
51614;SDS011;37695;52.960;6.188;2022-09-30T01:50:22;2.22;;;1.63;;
51614;SDS011;37695;52.960;6.188;2022-09-30T01:52:55;1.55;;;1.25;;
51614;SDS011;37695;52.960;6.188;2022-09-30T01:55:31;1.33;;;1.13;;
51614;SDS011;37695;52.960;6.188;2022-09-30T01:58:18;1.80;;;1.50;;
51614;SDS011;37695;52.960;6.188;2022-09-30T02:00:52;1.70;;;1.33;;
51614;SDS011;37695;52.960;6.188;2022-09-30T02:03:29;1.95;;;1.30;;
51614;SDS011;37695;52.960;6.188;2022-09-30T02:06:03;2.22;;;1.73;;
51614;SDS011;37695;52.960;6.188;2022-09-30T02:11:17;6.80;;;2.17;;
51614;SDS011;37695;52.960;6.188;2022-09-30T02:13:57;3.08;;;1.40;;
51614;SDS011;37695;52.960;6.188;2022-09-30T02:16:28;1.25;;;1.08;;
51614;SDS011;37695;52.960;6.188;2022-09-30T02:22:03;19.75;;;1.50;;
51614;SDS011;37695;52.960;6.188;2022-09-30T02:24:34;6.47;;;1.50;;
51614;SDS011;37695;52.960;6.188;2022-09-30T02:27:04;2.72;;;1.17;;
51614;SDS011;37695;52.960;6.188;2022-09-30T02:29:37;1.10;;;0.95;;
51614;SDS011;37695;52.960;6.188;2022-09-30T02:32:11;4.80;;;1.02;;
51614;SDS011;37695;52.960;6.188;2022-09-30T02:34:44;1.67;;;1.30;;
51614;SDS011;37695;52.960;6.188;2022-09-30T02:37:24;1.25;;;1.13;;
51614;SDS011;37695;52.960;6.188;2022-09-30T02:42:21;1.00;;;1.00;;
51614;SDS011;37695;52.960;6.188;2022-09-30T02:44:51;14.48;;;1.83;;
51614;SDS011;37695;52.960;6.188;2022-09-30T02:47:40;1.42;;;1.20;;
51614;SDS011;37695;52.960;6.188;2022-09-30T02:50:21;1.65;;;1.05;;
51614;SDS011;37695;52.960;6.188;2022-09-30T02:55:54;0.90;;;0.90;;
51614;SDS011;37695;52.960;6.188;2022-09-30T02:58:29;0.65;;;0.65;;
51614;SDS011;37695;52.960;6.188;2022-09-30T03:00:55;0.80;;;0.80;;
51614;SDS011;37695;52.960;6.188;2022-09-30T03:05:59;3.15;;;1.10;;
51614;SDS011;37695;52.960;6.188;2022-09-30T03:08:25;4.10;;;0.90;;
51614;SDS011;37695;52.960;6.188;2022-09-30T03:10:50;1.38;;;1.10;;
51614;SDS011;37695;52.960;6.188;2022-09-30T03:13:42;1.55;;;1.00;;
51614;SDS011;37695;52.960;6.188;2022-09-30T03:16:36;1.02;;;1.00;;
51614;SDS011;37695;52.960;6.188;2022-09-30T03:24:42;0.70;;;0.70;;
51614;SDS011;37695;52.960;6.188;2022-09-30T03:30:03;1.15;;;1.05;;
51614;SDS011;37695;52.960;6.188;2022-09-30T03:33:00;0.80;;;0.80;;
51614;SDS011;37695;52.960;6.188;2022-09-30T03:38:27;1.23;;;0.80;;
51614;SDS011;37695;52.960;6.188;2022-09-30T03:41:16;17.80;;;1.20;;
51614;SDS011;37695;52.960;6.188;2022-09-30T03:44:07;2.78;;;0.80;;
51614;SDS011;37695;52.960;6.188;2022-09-30T03:46:50;6.75;;;1.00;;
51614;SDS011;37695;52.960;6.188;2022-09-30T03:49:22;12.27;;;1.60;;
51614;SDS011;37695;52.960;6.188;2022-09-30T03:51:52;6.60;;;1.80;;
51614;SDS011;37695;52.960;6.188;2022-09-30T03:54:18;6.80;;;2.00;;
51614;SDS011;37695;52.960;6.188;2022-09-30T03:56:44;2.65;;;1.95;;
51614;SDS011;37695;52.960;6.188;2022-09-30T03:59:23;3.15;;;1.67;;
51614;SDS011;37695;52.960;6.188;2022-09-30T04:01:52;3.97;;;1.63;;
51614;SDS011;37695;52.960;6.188;2022-09-30T04:04:18;2.92;;;1.80;;
51614;SDS011;37695;52.960;6.188;2022-09-30T04:06:43;2.72;;;1.75;;
51614;SDS011;37695;52.960;6.188;2022-09-30T04:09:09;3.15;;;1.15;;
51614;SDS011;37695;52.960;6.188;2022-09-30T04:11:35;5.10;;;1.63;;
51614;SDS011;37695;52.960;6.188;2022-09-30T04:14:01;5.57;;;1.52;;
51614;SDS011;37695;52.960;6.188;2022-09-30T04:16:27;5.20;;;1.30;;
51614;SDS011;37695;52.960;6.188;2022-09-30T04:18:54;7.93;;;1.83;;
51614;SDS011;37695;52.960;6.188;2022-09-30T04:21:21;5.88;;;1.85;;
51614;SDS011;37695;52.960;6.188;2022-09-30T04:23:46;4.70;;;2.00;;
51614;SDS011;37695;52.960;6.188;2022-09-30T04:26:14;3.10;;;1.60;;
51614;SDS011;37695;52.960;6.188;2022-09-30T04:28:41;3.58;;;1.30;;
51614;SDS011;37695;52.960;6.188;2022-09-30T04:31:09;2.13;;;1.10;;
51614;SDS011;37695;52.960;6.188;2022-09-30T04:33:39;3.00;;;1.20;;
51614;SDS011;37695;52.960;6.188;2022-09-30T04:36:05;1.05;;;1.00;;
51614;SDS011;37695;52.960;6.188;2022-09-30T04:38:31;3.78;;;1.38;;
51614;SDS011;37695;52.960;6.188;2022-09-30T04:41:00;6.20;;;1.40;;
51614;SDS011;37695;52.960;6.188;2022-09-30T04:43:27;1.73;;;1.23;;
51614;SDS011;37695;52.960;6.188;2022-09-30T04:45:54;3.08;;;1.70;;
51614;SDS011;37695;52.960;6.188;2022-09-30T04:48:21;2.88;;;1.90;;
51614;SDS011;37695;52.960;6.188;2022-09-30T04:50:47;3.05;;;1.67;;
51614;SDS011;37695;52.960;6.188;2022-09-30T04:53:13;3.25;;;1.73;;
51614;SDS011;37695;52.960;6.188;2022-09-30T04:55:39;1.88;;;1.17;;
51614;SDS011;37695;52.960;6.188;2022-09-30T04:58:05;1.15;;;1.00;;
51614;SDS011;37695;52.960;6.188;2022-09-30T05:00:31;1.35;;;1.25;;
51614;SDS011;37695;52.960;6.188;2022-09-30T05:02:57;1.80;;;1.42;;
51614;SDS011;37695;52.960;6.188;2022-09-30T05:05:22;2.40;;;1.30;;
51614;SDS011;37695;52.960;6.188;2022-09-30T05:07:48;1.98;;;1.08;;
51614;SDS011;37695;52.960;6.188;2022-09-30T05:10:13;2.17;;;1.52;;
51614;SDS011;37695;52.960;6.188;2022-09-30T05:12:40;4.25;;;1.40;;
51614;SDS011;37695;52.960;6.188;2022-09-30T05:15:06;4.25;;;1.50;;
51614;SDS011;37695;52.960;6.188;2022-09-30T05:17:32;6.43;;;1.50;;
51614;SDS011;37695;52.960;6.188;2022-09-30T05:19:58;5.55;;;1.75;;
51614;SDS011;37695;52.960;6.188;2022-09-30T05:22:25;5.10;;;1.80;;
51614;SDS011;37695;52.960;6.188;2022-09-30T05:24:52;4.00;;;1.70;;
51614;SDS011;37695;52.960;6.188;2022-09-30T05:27:18;21.63;;;2.13;;
51614;SDS011;37695;52.960;6.188;2022-09-30T05:29:44;14.60;;;1.83;;
51614;SDS011;37695;52.960;6.188;2022-09-30T05:32:10;6.13;;;1.83;;
51614;SDS011;37695;52.960;6.188;2022-09-30T05:34:36;19.20;;;1.80;;
51614;SDS011;37695;52.960;6.188;2022-09-30T05:37:03;11.52;;;1.60;;
51614;SDS011;37695;52.960;6.188;2022-09-30T05:39:29;7.65;;;1.50;;
51614;SDS011;37695;52.960;6.188;2022-09-30T05:41:55;6.90;;;1.50;;
51614;SDS011;37695;52.960;6.188;2022-09-30T05:44:21;2.40;;;1.70;;
51614;SDS011;37695;52.960;6.188;2022-09-30T05:46:47;5.85;;;2.35;;
51614;SDS011;37695;52.960;6.188;2022-09-30T05:49:12;4.65;;;2.17;;
51614;SDS011;37695;52.960;6.188;2022-09-30T05:51:38;7.22;;;2.30;;
51614;SDS011;37695;52.960;6.188;2022-09-30T05:54:03;3.08;;;1.55;;
51614;SDS011;37695;52.960;6.188;2022-09-30T05:56:29;3.15;;;1.50;;
51614;SDS011;37695;52.960;6.188;2022-09-30T05:58:54;2.17;;;1.60;;
51614;SDS011;37695;52.960;6.188;2022-09-30T06:01:20;4.32;;;1.50;;
51614;SDS011;37695;52.960;6.188;2022-09-30T06:03:46;4.57;;;1.88;;
51614;SDS011;37695;52.960;6.188;2022-09-30T06:06:12;2.83;;;1.50;;
51614;SDS011;37695;52.960;6.188;2022-09-30T06:08:39;2.42;;;1.50;;
51614;SDS011;37695;52.960;6.188;2022-09-30T06:11:23;2.78;;;1.73;;
51614;SDS011;37695;52.960;6.188;2022-09-30T06:13:49;2.65;;;1.83;;
51614;SDS011;37695;52.960;6.188;2022-09-30T06:16:15;9.15;;;2.50;;
51614;SDS011;37695;52.960;6.188;2022-09-30T06:18:42;6.50;;;2.08;;
51614;SDS011;37695;52.960;6.188;2022-09-30T06:21:09;2.85;;;2.03;;
51614;SDS011;37695;52.960;6.188;2022-09-30T06:23:37;3.17;;;2.17;;
51614;SDS011;37695;52.960;6.188;2022-09-30T06:26:04;6.65;;;3.50;;
51614;SDS011;37695;52.960;6.188;2022-09-30T06:28:30;12.15;;;4.80;;
51614;SDS011;37695;52.960;6.188;2022-09-30T06:31:00;14.52;;;4.30;;
51614;SDS011;37695;52.960;6.188;2022-09-30T06:33:26;11.10;;;3.13;;
51614;SDS011;37695;52.960;6.188;2022-09-30T06:35:52;30.05;;;4.00;;
51614;SDS011;37695;52.960;6.188;2022-09-30T06:38:18;13.23;;;3.47;;
51614;SDS011;37695;52.960;6.188;2022-09-30T06:40:45;11.15;;;2.60;;
51614;SDS011;37695;52.960;6.188;2022-09-30T06:43:14;16.83;;;3.58;;
51614;SDS011;37695;52.960;6.188;2022-09-30T06:45:40;17.15;;;3.05;;
51614;SDS011;37695;52.960;6.188;2022-09-30T06:48:06;39.33;;;4.13;;
51614;SDS011;37695;52.960;6.188;2022-09-30T06:50:33;13.23;;;3.65;;
51614;SDS011;37695;52.960;6.188;2022-09-30T06:53:00;49.33;;;3.95;;
51614;SDS011;37695;52.960;6.188;2022-09-30T06:55:28;18.02;;;3.47;;
51614;SDS011;37695;52.960;6.188;2022-09-30T06:57:54;12.85;;;4.10;;
51614;SDS011;37695;52.960;6.188;2022-09-30T07:00:20;28.30;;;4.63;;
51614;SDS011;37695;52.960;6.188;2022-09-30T07:02:46;28.08;;;4.53;;
51614;SDS011;37695;52.960;6.188;2022-09-30T07:05:13;31.85;;;4.82;;
51614;SDS011;37695;52.960;6.188;2022-09-30T07:07:40;14.82;;;4.75;;
51614;SDS011;37695;52.960;6.188;2022-09-30T07:10:06;16.80;;;4.32;;
51614;SDS011;37695;52.960;6.188;2022-09-30T07:12:32;9.25;;;4.82;;
51614;SDS011;37695;52.960;6.188;2022-09-30T07:14:58;24.35;;;4.97;;
51614;SDS011;37695;52.960;6.188;2022-09-30T07:17:24;13.35;;;5.03;;
51614;SDS011;37695;52.960;6.188;2022-09-30T07:19:50;30.17;;;5.47;;
51614;SDS011;37695;52.960;6.188;2022-09-30T07:22:16;23.35;;;5.15;;
51614;SDS011;37695;52.960;6.188;2022-09-30T07:24:56;8.68;;;4.97;;
51614;SDS011;37695;52.960;6.188;2022-09-30T07:27:22;19.15;;;4.78;;
51614;SDS011;37695;52.960;6.188;2022-09-30T07:29:52;20.63;;;5.10;;
51614;SDS011;37695;52.960;6.188;2022-09-30T07:32:19;17.60;;;5.85;;
51614;SDS011;37695;52.960;6.188;2022-09-30T07:34:45;23.80;;;4.80;;
51614;SDS011;37695;52.960;6.188;2022-09-30T07:37:11;24.90;;;5.50;;
51614;SDS011;37695;52.960;6.188;2022-09-30T07:39:39;17.70;;;5.28;;
51614;SDS011;37695;52.960;6.188;2022-09-30T07:42:05;15.85;;;5.43;;
51614;SDS011;37695;52.960;6.188;2022-09-30T07:44:31;18.33;;;6.25;;
51614;SDS011;37695;52.960;6.188;2022-09-30T07:46:57;10.82;;;5.75;;
51614;SDS011;37695;52.960;6.188;2022-09-30T07:49:24;20.25;;;6.20;;
51614;SDS011;37695;52.960;6.188;2022-09-30T07:51:52;7.82;;;5.65;;
51614;SDS011;37695;52.960;6.188;2022-09-30T07:54:21;9.85;;;6.38;;
51614;SDS011;37695;52.960;6.188;2022-09-30T07:56:48;15.52;;;6.63;;
51614;SDS011;37695;52.960;6.188;2022-09-30T07:59:15;9.13;;;6.78;;
51614;SDS011;37695;52.960;6.188;2022-09-30T08:01:41;10.90;;;6.68;;
51614;SDS011;37695;52.960;6.188;2022-09-30T08:04:07;10.43;;;7.28;;
51614;SDS011;37695;52.960;6.188;2022-09-30T08:07:07;8.63;;;7.18;;
51614;SDS011;37695;52.960;6.188;2022-09-30T08:09:26;7.68;;;6.30;;
51614;SDS011;37695;52.960;6.188;2022-09-30T08:11:53;8.10;;;6.82;;
51614;SDS011;37695;52.960;6.188;2022-09-30T08:14:23;8.43;;;6.80;;
51614;SDS011;37695;52.960;6.188;2022-09-30T08:16:50;9.45;;;7.35;;
51614;SDS011;37695;52.960;6.188;2022-09-30T08:19:18;8.63;;;7.20;;
51614;SDS011;37695;52.960;6.188;2022-09-30T08:21:47;12.55;;;8.15;;
51614;SDS011;37695;52.960;6.188;2022-09-30T08:24:13;9.38;;;8.32;;
51614;SDS011;37695;52.960;6.188;2022-09-30T08:26:38;10.02;;;7.82;;
51614;SDS011;37695;52.960;6.188;2022-09-30T08:29:05;9.48;;;8.23;;
51614;SDS011;37695;52.960;6.188;2022-09-30T08:31:30;9.90;;;7.85;;
51614;SDS011;37695;52.960;6.188;2022-09-30T08:33:57;9.68;;;8.05;;
51614;SDS011;37695;52.960;6.188;2022-09-30T08:36:23;10.40;;;8.13;;
51614;SDS011;37695;52.960;6.188;2022-09-30T08:38:51;9.27;;;8.18;;
51614;SDS011;37695;52.960;6.188;2022-09-30T08:46:39;8.60;;;7.07;;
51614;SDS011;37695;52.960;6.188;2022-09-30T08:49:22;9.10;;;7.57;;
51614;SDS011;37695;52.960;6.188;2022-09-30T08:52:03;8.13;;;6.75;;
51614;SDS011;37695;52.960;6.188;2022-09-30T08:54:35;9.38;;;7.65;;
51614;SDS011;37695;52.960;6.188;2022-09-30T08:57:02;8.32;;;6.90;;
51614;SDS011;37695;52.960;6.188;2022-09-30T08:59:36;9.35;;;7.72;;
51614;SDS011;37695;52.960;6.188;2022-09-30T09:02:18;8.45;;;7.53;;
51614;SDS011;37695;52.960;6.188;2022-09-30T09:04:48;8.18;;;6.95;;
51614;SDS011;37695;52.960;6.188;2022-09-30T09:20:57;7.63;;;6.03;;
51614;SDS011;37695;52.960;6.188;2022-09-30T09:23:26;6.50;;;5.05;;
51614;SDS011;37695;52.960;6.188;2022-09-30T09:25:55;6.72;;;5.65;;
51614;SDS011;37695;52.960;6.188;2022-09-30T09:28:24;5.53;;;4.47;;
51614;SDS011;37695;52.960;6.188;2022-09-30T09:30:59;5.28;;;4.30;;
51614;SDS011;37695;52.960;6.188;2022-09-30T09:33:29;6.03;;;3.53;;
51614;SDS011;37695;52.960;6.188;2022-09-30T09:36:13;6.30;;;3.33;;
51614;SDS011;37695;52.960;6.188;2022-09-30T09:38:58;4.75;;;3.47;;
51614;SDS011;37695;52.960;6.188;2022-09-30T09:44:23;5.90;;;3.60;;
51614;SDS011;37695;52.960;6.188;2022-09-30T09:47:03;7.28;;;3.40;;
51614;SDS011;37695;52.960;6.188;2022-09-30T09:49:59;5.13;;;3.78;;
51614;SDS011;37695;52.960;6.188;2022-09-30T09:55:06;5.03;;;3.78;;
51614;SDS011;37695;52.960;6.188;2022-09-30T09:57:33;5.28;;;3.42;;
51614;SDS011;37695;52.960;6.188;2022-09-30T10:00:09;5.68;;;3.55;;
51614;SDS011;37695;52.960;6.188;2022-09-30T10:03:05;5.72;;;3.58;;
51614;SDS011;37695;52.960;6.188;2022-09-30T10:06:08;6.32;;;3.80;;
51614;SDS011;37695;52.960;6.188;2022-09-30T10:08:52;5.38;;;3.67;;
51614;SDS011;37695;52.960;6.188;2022-09-30T10:11:20;5.70;;;3.38;;
51614;SDS011;37695;52.960;6.188;2022-09-30T10:13:48;5.07;;;3.55;;
51614;SDS011;37695;52.960;6.188;2022-09-30T10:16:48;4.82;;;3.83;;
51614;SDS011;37695;52.960;6.188;2022-09-30T10:19:17;5.70;;;3.95;;
51614;SDS011;37695;52.960;6.188;2022-09-30T10:21:46;5.25;;;3.60;;
51614;SDS011;37695;52.960;6.188;2022-09-30T10:24:19;4.63;;;3.30;;
51614;SDS011;37695;52.960;6.188;2022-09-30T10:26:50;5.60;;;3.25;;
51614;SDS011;37695;52.960;6.188;2022-09-30T10:29:27;5.07;;;3.50;;
51614;SDS011;37695;52.960;6.188;2022-09-30T10:31:55;3.72;;;2.90;;
51614;SDS011;37695;52.960;6.188;2022-09-30T10:34:29;6.82;;;3.33;;
51614;SDS011;37695;52.960;6.188;2022-09-30T10:37:12;4.93;;;3.80;;
51614;SDS011;37695;52.960;6.188;2022-09-30T10:39:40;5.85;;;3.70;;
51614;SDS011;37695;52.960;6.188;2022-09-30T10:42:15;5.00;;;3.35;;
51614;SDS011;37695;52.960;6.188;2022-09-30T10:44:48;4.97;;;3.58;;
51614;SDS011;37695;52.960;6.188;2022-09-30T10:47:25;4.43;;;3.25;;
51614;SDS011;37695;52.960;6.188;2022-09-30T10:50:04;5.25;;;3.63;;
51614;SDS011;37695;52.960;6.188;2022-09-30T10:52:33;4.50;;;3.20;;
51614;SDS011;37695;52.960;6.188;2022-09-30T10:55:14;4.75;;;3.47;;
51614;SDS011;37695;52.960;6.188;2022-09-30T10:57:56;4.57;;;2.83;;
51614;SDS011;37695;52.960;6.188;2022-09-30T11:00:41;5.35;;;3.15;;
51614;SDS011;37695;52.960;6.188;2022-09-30T11:03:13;4.22;;;2.80;;
51614;SDS011;37695;52.960;6.188;2022-09-30T11:05:43;3.65;;;2.50;;
51614;SDS011;37695;52.960;6.188;2022-09-30T11:08:15;3.88;;;2.38;;
51614;SDS011;37695;52.960;6.188;2022-09-30T11:11:01;2.80;;;2.00;;
51614;SDS011;37695;52.960;6.188;2022-09-30T11:22:27;2.53;;;1.75;;
51614;SDS011;37695;52.960;6.188;2022-09-30T11:25:01;3.65;;;2.03;;
51614;SDS011;37695;52.960;6.188;2022-09-30T11:27:47;3.72;;;2.38;;
51614;SDS011;37695;52.960;6.188;2022-09-30T11:33:24;3.40;;;2.20;;
51614;SDS011;37695;52.960;6.188;2022-09-30T11:35:55;3.45;;;2.47;;
51614;SDS011;37695;52.960;6.188;2022-09-30T11:41:27;3.60;;;2.40;;
51614;SDS011;37695;52.960;6.188;2022-09-30T11:52:02;3.17;;;2.40;;
51614;SDS011;37695;52.960;6.188;2022-09-30T12:00:17;2.90;;;2.22;;
51614;SDS011;37695;52.960;6.188;2022-09-30T12:02:49;5.25;;;2.38;;
51614;SDS011;37695;52.960;6.188;2022-09-30T12:05:28;3.25;;;2.28;;
51614;SDS011;37695;52.960;6.188;2022-09-30T12:08:15;3.80;;;2.40;;
51614;SDS011;37695;52.960;6.188;2022-09-30T12:10:53;3.15;;;1.95;;
51614;SDS011;37695;52.960;6.188;2022-09-30T12:13:22;3.15;;;2.40;;
51614;SDS011;37695;52.960;6.188;2022-09-30T12:15:51;5.18;;;2.80;;
51614;SDS011;37695;52.960;6.188;2022-09-30T12:18:43;3.60;;;2.38;;
51614;SDS011;37695;52.960;6.188;2022-09-30T12:21:16;4.30;;;2.63;;
51614;SDS011;37695;52.960;6.188;2022-09-30T12:24:03;3.72;;;2.67;;
51614;SDS011;37695;52.960;6.188;2022-09-30T12:26:38;4.75;;;2.35;;
51614;SDS011;37695;52.960;6.188;2022-09-30T12:29:06;3.38;;;1.92;;
51614;SDS011;37695;52.960;6.188;2022-09-30T12:32:17;4.90;;;2.30;;
51614;SDS011;37695;52.960;6.188;2022-09-30T12:35:06;3.83;;;2.30;;
51614;SDS011;37695;52.960;6.188;2022-09-30T12:49:16;3.53;;;2.40;;
51614;SDS011;37695;52.960;6.188;2022-09-30T12:51:52;4.57;;;2.70;;
51614;SDS011;37695;52.960;6.188;2022-09-30T12:54:25;4.28;;;2.72;;
51614;SDS011;37695;52.960;6.188;2022-09-30T12:56:56;5.70;;;3.30;;
51614;SDS011;37695;52.960;6.188;2022-09-30T12:59:29;4.90;;;3.03;;
51614;SDS011;37695;52.960;6.188;2022-09-30T13:02:20;4.18;;;3.13;;
51614;SDS011;37695;52.960;6.188;2022-09-30T13:04:52;3.90;;;2.70;;
51614;SDS011;37695;52.960;6.188;2022-09-30T13:07:20;3.60;;;2.60;;
51614;SDS011;37695;52.960;6.188;2022-09-30T13:09:56;4.43;;;3.20;;
51614;SDS011;37695;52.960;6.188;2022-09-30T13:12:46;4.85;;;3.13;;
51614;SDS011;37695;52.960;6.188;2022-09-30T13:17:54;5.55;;;3.53;;
51614;SDS011;37695;52.960;6.188;2022-09-30T13:28:51;5.53;;;3.00;;
51614;SDS011;37695;52.960;6.188;2022-09-30T13:31:19;3.58;;;2.42;;
51614;SDS011;37695;52.960;6.188;2022-09-30T13:36:31;4.22;;;2.78;;
51614;SDS011;37695;52.960;6.188;2022-09-30T13:44:33;6.05;;;2.97;;
51614;SDS011;37695;52.960;6.188;2022-09-30T13:49:59;4.15;;;3.00;;
51614;SDS011;37695;52.960;6.188;2022-09-30T13:52:48;5.10;;;2.90;;
51614;SDS011;37695;52.960;6.188;2022-09-30T13:55:19;4.30;;;2.90;;
51614;SDS011;37695;52.960;6.188;2022-09-30T13:58:55;4.63;;;2.60;;
51614;SDS011;37695;52.960;6.188;2022-09-30T14:01:10;5.80;;;2.75;;
51614;SDS011;37695;52.960;6.188;2022-09-30T14:09:53;3.40;;;2.72;;
51614;SDS011;37695;52.960;6.188;2022-09-30T14:15:07;3.97;;;2.35;;
51614;SDS011;37695;52.960;6.188;2022-09-30T14:20:58;4.18;;;2.63;;
51614;SDS011;37695;52.960;6.188;2022-09-30T14:23:45;8.02;;;2.60;;
51614;SDS011;37695;52.960;6.188;2022-09-30T14:26:30;3.20;;;2.33;;
51614;SDS011;37695;52.960;6.188;2022-09-30T14:29:27;9.50;;;2.20;;
51614;SDS011;37695;52.960;6.188;2022-09-30T14:31:54;5.30;;;2.38;;
51614;SDS011;37695;52.960;6.188;2022-09-30T14:34:20;3.78;;;2.25;;
51614;SDS011;37695;52.960;6.188;2022-09-30T14:36:48;5.88;;;2.45;;
51614;SDS011;37695;52.960;6.188;2022-09-30T14:39:17;5.10;;;2.50;;
51614;SDS011;37695;52.960;6.188;2022-09-30T14:41:55;3.22;;;2.20;;
51614;SDS011;37695;52.960;6.188;2022-09-30T14:44:27;5.47;;;2.03;;
51614;SDS011;37695;52.960;6.188;2022-09-30T14:46:55;2.90;;;1.80;;
51614;SDS011;37695;52.960;6.188;2022-09-30T14:49:25;2.75;;;1.77;;
51614;SDS011;37695;52.960;6.188;2022-09-30T14:51:57;2.00;;;1.70;;
51614;SDS011;37695;52.960;6.188;2022-09-30T14:54:27;2.33;;;1.60;;
51614;SDS011;37695;52.960;6.188;2022-09-30T14:56:55;3.25;;;2.00;;
51614;SDS011;37695;52.960;6.188;2022-09-30T15:01:52;2.92;;;1.92;;
51614;SDS011;37695;52.960;6.188;2022-09-30T15:04:25;2.60;;;1.83;;
51614;SDS011;37695;52.960;6.188;2022-09-30T15:06:55;2.28;;;1.70;;
51614;SDS011;37695;52.960;6.188;2022-09-30T15:09:42;3.40;;;1.90;;
51614;SDS011;37695;52.960;6.188;2022-09-30T15:12:11;3.17;;;1.70;;
51614;SDS011;37695;52.960;6.188;2022-09-30T15:14:47;3.63;;;1.75;;
51614;SDS011;37695;52.960;6.188;2022-09-30T15:17:18;2.58;;;1.83;;
51614;SDS011;37695;52.960;6.188;2022-09-30T15:19:45;3.30;;;1.77;;
51614;SDS011;37695;52.960;6.188;2022-09-30T15:22:12;3.53;;;2.05;;
51614;SDS011;37695;52.960;6.188;2022-09-30T15:24:39;2.22;;;1.73;;
51614;SDS011;37695;52.960;6.188;2022-09-30T15:27:06;2.38;;;1.80;;
51614;SDS011;37695;52.960;6.188;2022-09-30T15:29:56;2.10;;;1.80;;
51614;SDS011;37695;52.960;6.188;2022-09-30T15:32:24;3.50;;;2.10;;
51614;SDS011;37695;52.960;6.188;2022-09-30T15:34:52;4.70;;;2.42;;
51614;SDS011;37695;52.960;6.188;2022-09-30T15:37:22;4.70;;;2.70;;
51614;SDS011;37695;52.960;6.188;2022-09-30T15:39:50;3.35;;;2.20;;
51614;SDS011;37695;52.960;6.188;2022-09-30T15:42:35;4.03;;;2.35;;
51614;SDS011;37695;52.960;6.188;2022-09-30T15:45:10;2.53;;;1.95;;
51614;SDS011;37695;52.960;6.188;2022-09-30T15:53:11;3.95;;;2.22;;
51614;SDS011;37695;52.960;6.188;2022-09-30T15:55:49;3.38;;;2.08;;
51614;SDS011;37695;52.960;6.188;2022-09-30T16:06:19;4.38;;;2.10;;
51614;SDS011;37695;52.960;6.188;2022-09-30T16:08:58;3.08;;;2.10;;
51614;SDS011;37695;52.960;6.188;2022-09-30T16:11:31;3.13;;;2.17;;
51614;SDS011;37695;52.960;6.188;2022-09-30T16:13:59;3.45;;;2.28;;
51614;SDS011;37695;52.960;6.188;2022-09-30T16:16:27;3.50;;;2.20;;
51614;SDS011;37695;52.960;6.188;2022-09-30T16:18:55;3.38;;;2.20;;
51614;SDS011;37695;52.960;6.188;2022-09-30T16:27:00;3.83;;;2.10;;
51614;SDS011;37695;52.960;6.188;2022-09-30T16:30:06;3.75;;;2.40;;
51614;SDS011;37695;52.960;6.188;2022-09-30T16:32:38;3.28;;;2.20;;
51614;SDS011;37695;52.960;6.188;2022-09-30T16:35:09;4.53;;;2.20;;
51614;SDS011;37695;52.960;6.188;2022-09-30T16:37:45;3.42;;;2.30;;
51614;SDS011;37695;52.960;6.188;2022-09-30T16:40:22;3.08;;;2.25;;
51614;SDS011;37695;52.960;6.188;2022-09-30T16:42:50;5.97;;;2.60;;
51614;SDS011;37695;52.960;6.188;2022-09-30T16:45:19;3.25;;;2.30;;
51614;SDS011;37695;52.960;6.188;2022-09-30T16:47:45;4.07;;;2.30;;
51614;SDS011;37695;52.960;6.188;2022-09-30T16:50:59;2.85;;;2.17;;
51614;SDS011;37695;52.960;6.188;2022-09-30T16:52:56;4.57;;;2.45;;
51614;SDS011;37695;52.960;6.188;2022-09-30T16:55:22;4.32;;;2.60;;
51614;SDS011;37695;52.960;6.188;2022-09-30T16:57:49;6.63;;;2.50;;
51614;SDS011;37695;52.960;6.188;2022-09-30T17:00:15;3.95;;;2.85;;
51614;SDS011;37695;52.960;6.188;2022-09-30T17:02:45;4.38;;;2.55;;
51614;SDS011;37695;52.960;6.188;2022-09-30T17:05:15;4.22;;;2.72;;
51614;SDS011;37695;52.960;6.188;2022-09-30T17:08:03;3.75;;;2.67;;
51614;SDS011;37695;52.960;6.188;2022-09-30T17:10:39;4.07;;;2.70;;
51614;SDS011;37695;52.960;6.188;2022-09-30T17:13:08;5.13;;;3.10;;
51614;SDS011;37695;52.960;6.188;2022-09-30T17:15:34;5.47;;;3.25;;
51614;SDS011;37695;52.960;6.188;2022-09-30T17:18:03;3.72;;;2.80;;
51614;SDS011;37695;52.960;6.188;2022-09-30T17:20:34;4.70;;;3.33;;
51614;SDS011;37695;52.960;6.188;2022-09-30T17:23:01;4.30;;;2.90;;
51614;SDS011;37695;52.960;6.188;2022-09-30T17:25:26;5.55;;;3.28;;
51614;SDS011;37695;52.960;6.188;2022-09-30T17:27:52;6.68;;;3.67;;
51614;SDS011;37695;52.960;6.188;2022-09-30T17:30:18;5.00;;;3.55;;
51614;SDS011;37695;52.960;6.188;2022-09-30T17:32:44;4.72;;;3.40;;
51614;SDS011;37695;52.960;6.188;2022-09-30T17:35:10;4.88;;;3.22;;
51614;SDS011;37695;52.960;6.188;2022-09-30T17:37:36;5.32;;;3.28;;
51614;SDS011;37695;52.960;6.188;2022-09-30T17:40:03;6.30;;;4.07;;
51614;SDS011;37695;52.960;6.188;2022-09-30T17:42:50;4.97;;;3.60;;
51614;SDS011;37695;52.960;6.188;2022-09-30T17:45:31;5.10;;;3.97;;
51614;SDS011;37695;52.960;6.188;2022-09-30T17:48:00;5.40;;;4.00;;
51614;SDS011;37695;52.960;6.188;2022-09-30T17:50:26;6.15;;;4.05;;
51614;SDS011;37695;52.960;6.188;2022-09-30T17:52:52;5.88;;;3.65;;
51614;SDS011;37695;52.960;6.188;2022-09-30T17:55:18;5.80;;;4.10;;
51614;SDS011;37695;52.960;6.188;2022-09-30T17:57:44;5.40;;;3.85;;
51614;SDS011;37695;52.960;6.188;2022-09-30T18:00:09;6.03;;;3.90;;